createdAt,value
2017-09-07T00:00:05.806Z,5.20
2017-09-07T00:02:34.067Z,4.73
2017-09-07T00:05:02.315Z,4.27
2017-09-07T00:07:30.573Z,4.17
2017-09-07T00:09:58.814Z,5.07
2017-09-07T00:12:27.074Z,6.00
2017-09-07T00:14:56.110Z,4.40
2017-09-07T00:17:24.382Z,3.50
2017-09-07T00:19:52.630Z,4.67
2017-09-07T00:22:20.877Z,4.50
2017-09-07T00:24:49.161Z,6.80
2017-09-07T00:27:17.413Z,5.87
2017-09-07T00:29:45.679Z,4.23
2017-09-07T00:32:13.919Z,5.60
2017-09-07T00:34:42.183Z,5.70
2017-09-07T00:37:49.168Z,6.67
2017-09-07T00:40:17.436Z,5.63
2017-09-07T00:42:45.681Z,4.10
2017-09-07T00:45:13.939Z,6.33
2017-09-07T00:47:42.956Z,5.20
2017-09-07T00:50:11.219Z,5.40
2017-09-07T00:52:39.468Z,4.90
2017-09-07T00:55:07.818Z,3.90
2017-09-07T00:57:36.103Z,4.17
2017-09-07T01:00:04.398Z,4.43
2017-09-07T01:02:32.644Z,5.13
2017-09-07T01:05:01.059Z,5.93
2017-09-07T01:07:29.345Z,4.97
2017-09-07T01:09:57.591Z,3.97
2017-09-07T01:12:25.834Z,3.30
2017-09-07T01:14:54.098Z,4.70
2017-09-07T01:17:22.346Z,4.20
2017-09-07T01:19:50.604Z,4.50
2017-09-07T01:22:19.622Z,4.23
2017-09-07T01:24:47.881Z,3.23
2017-09-07T01:27:16.901Z,3.97
2017-09-07T01:29:45.158Z,4.73
2017-09-07T01:32:14.177Z,4.53
2017-09-07T01:34:42.445Z,4.63
2017-09-07T01:37:10.695Z,5.10
2017-09-07T01:39:41.270Z,3.90
2017-09-07T01:42:09.516Z,4.47
2017-09-07T01:44:37.797Z,4.30
2017-09-07T01:47:06.050Z,3.73
2017-09-07T01:49:34.288Z,3.30
2017-09-07T01:52:02.549Z,5.20
2017-09-07T01:54:31.570Z,4.50
2017-09-07T01:56:59.857Z,4.33
2017-09-07T01:59:28.085Z,3.93
2017-09-07T02:01:56.347Z,4.20
2017-09-07T02:04:24.592Z,4.60
2017-09-07T02:06:52.893Z,4.43
2017-09-07T02:09:21.143Z,4.37
2017-09-07T02:11:49.399Z,5.10
2017-09-07T02:14:18.423Z,4.17
2017-09-07T02:16:46.683Z,4.40
2017-09-07T02:19:15.703Z,4.40
2017-09-07T02:21:43.974Z,3.60
2017-09-07T02:24:12.994Z,4.20
2017-09-07T02:26:41.251Z,3.40
2017-09-07T02:29:10.275Z,5.07
2017-09-07T02:31:38.532Z,4.13
2017-09-07T02:34:06.808Z,5.03
2017-09-07T02:36:35.829Z,4.60
2017-09-07T02:39:04.155Z,5.47
2017-09-07T02:41:32.422Z,4.40
2017-09-07T02:44:00.675Z,4.50
2017-09-07T02:46:28.975Z,4.10
2017-09-07T02:48:57.244Z,3.63
2017-09-07T02:51:25.491Z,5.50
2017-09-07T02:53:54.528Z,4.37
2017-09-07T02:56:22.762Z,6.20
2017-09-07T02:58:51.807Z,5.40
2017-09-07T03:01:20.068Z,4.60
2017-09-07T03:03:48.348Z,4.80
2017-09-07T03:06:17.374Z,5.63
2017-09-07T03:08:45.631Z,4.50
2017-09-07T03:11:13.904Z,4.33
2017-09-07T03:13:42.211Z,3.93
2017-09-07T03:16:10.523Z,4.80
2017-09-07T03:18:38.783Z,4.47
2017-09-07T03:21:07.030Z,4.10
2017-09-07T03:23:35.302Z,4.50
2017-09-07T03:26:03.573Z,5.60
2017-09-07T03:28:32.666Z,3.50
2017-09-07T03:31:01.677Z,4.17
2017-09-07T03:33:29.967Z,6.77
2017-09-07T03:35:58.205Z,4.53
2017-09-07T03:38:26.467Z,4.87
2017-09-07T03:40:54.715Z,5.13
2017-09-07T03:43:23.189Z,4.73
2017-09-07T03:45:52.190Z,3.70
2017-09-07T03:48:22.035Z,4.67
2017-09-07T03:50:50.278Z,4.77
2017-09-07T03:53:19.289Z,3.70
2017-09-07T03:55:47.553Z,4.43
2017-09-07T03:58:15.830Z,5.20
2017-09-07T04:00:44.858Z,4.13
2017-09-07T04:03:13.159Z,3.93
2017-09-07T04:05:41.387Z,5.00
2017-09-07T04:08:10.416Z,4.90
2017-09-07T04:10:38.662Z,5.23
2017-09-07T04:13:06.938Z,5.43
2017-09-07T04:15:35.198Z,4.80
2017-09-07T04:18:03.464Z,5.30
2017-09-07T04:20:31.706Z,4.57
2017-09-07T04:23:00.734Z,5.40
2017-09-07T04:25:28.983Z,4.20
2017-09-07T04:27:58.036Z,4.63
2017-09-07T04:30:26.292Z,4.20
2017-09-07T04:32:54.565Z,4.90
2017-09-07T04:35:22.799Z,9.60
2017-09-07T04:37:51.065Z,5.27
2017-09-07T04:40:19.306Z,7.43
2017-09-07T04:42:47.583Z,4.73
2017-09-07T04:45:16.596Z,4.60
2017-09-07T04:47:44.867Z,4.83
2017-09-07T04:50:13.119Z,4.37
2017-09-07T04:52:42.135Z,5.23
2017-09-07T04:55:10.424Z,4.77
2017-09-07T04:57:39.182Z,3.60
2017-09-07T05:00:08.218Z,4.30
2017-09-07T05:02:36.502Z,4.37
2017-09-07T05:05:04.765Z,5.20
2017-09-07T05:07:33.790Z,5.17
2017-09-07T05:10:02.039Z,4.10
2017-09-07T05:12:31.055Z,5.40
2017-09-07T05:14:59.327Z,5.17
2017-09-07T05:17:28.356Z,5.60
2017-09-07T05:19:56.658Z,5.23
2017-09-07T05:22:24.902Z,4.17
2017-09-07T05:24:53.179Z,4.10
2017-09-07T05:27:21.426Z,4.67
2017-09-07T05:29:50.455Z,4.20
2017-09-07T05:32:19.475Z,4.67
2017-09-07T05:34:47.751Z,5.10
2017-09-07T05:37:16.070Z,5.30
2017-09-07T05:39:44.329Z,4.73
2017-09-07T05:42:12.576Z,5.03
2017-09-07T05:44:40.868Z,4.87
2017-09-07T05:47:09.119Z,5.43
2017-09-07T05:49:38.175Z,7.77
2017-09-07T05:52:06.399Z,5.40
2017-09-07T05:54:35.440Z,5.33
2017-09-07T05:57:03.686Z,4.50
2017-09-07T05:59:32.966Z,5.07
2017-09-07T06:02:01.811Z,5.23
2017-09-07T06:04:30.067Z,5.47
2017-09-07T06:06:59.073Z,5.27
2017-09-07T06:09:27.339Z,5.37
2017-09-07T06:11:57.015Z,6.00
2017-09-07T06:14:25.288Z,5.47
2017-09-07T06:16:53.602Z,5.00
2017-09-07T06:19:22.639Z,4.50
2017-09-07T06:21:50.893Z,5.20
2017-09-07T06:24:19.155Z,5.93
2017-09-07T06:26:47.427Z,5.57
2017-09-07T06:29:15.690Z,5.20
2017-09-07T06:31:43.972Z,5.30
2017-09-07T06:34:12.240Z,4.77
2017-09-07T06:36:40.488Z,5.00
2017-09-07T06:39:08.760Z,4.63
2017-09-07T06:41:37.787Z,4.93
2017-09-07T06:44:06.056Z,4.67
2017-09-07T06:46:34.330Z,6.63
2017-09-07T06:49:02.612Z,5.87
2017-09-07T06:51:30.862Z,6.30
2017-09-07T06:54:00.628Z,4.70
2017-09-07T06:56:28.878Z,4.30
2017-09-07T06:58:57.909Z,4.20
2017-09-07T07:01:26.192Z,4.63
2017-09-07T07:03:54.465Z,6.30
2017-09-07T07:06:22.718Z,5.97
2017-09-07T07:08:50.982Z,6.00
2017-09-07T07:11:19.258Z,5.87
2017-09-07T07:13:47.515Z,5.60
2017-09-07T07:16:15.795Z,6.20
2017-09-07T07:18:44.043Z,5.80
2017-09-07T07:21:12.315Z,5.47
2017-09-07T07:23:40.555Z,5.73
2017-09-07T07:26:08.820Z,5.37
2017-09-07T07:28:37.065Z,6.07
2017-09-07T07:31:05.328Z,6.10
2017-09-07T07:33:33.592Z,5.30
2017-09-07T07:36:02.659Z,5.33
2017-09-07T07:38:30.915Z,4.80
2017-09-07T07:40:59.198Z,5.70
2017-09-07T07:43:27.446Z,4.97
2017-09-07T07:45:55.716Z,6.40
2017-09-07T07:48:24.753Z,4.67
2017-09-07T07:50:53.058Z,4.87
2017-09-07T07:53:22.246Z,4.90
2017-09-07T07:55:50.568Z,5.20
2017-09-07T07:58:18.862Z,4.83
2017-09-07T08:00:47.108Z,5.83
2017-09-07T08:03:15.355Z,6.17
2017-09-07T08:05:43.615Z,5.27
2017-09-07T08:08:12.626Z,5.43
2017-09-07T08:10:41.657Z,5.60
2017-09-07T08:13:09.941Z,4.30
2017-09-07T08:15:38.191Z,4.50
2017-09-07T08:18:06.453Z,5.30
2017-09-07T08:20:35.468Z,5.07
2017-09-07T08:23:04.165Z,4.70
2017-09-07T08:25:32.420Z,5.40
2017-09-07T08:28:01.451Z,4.67
2017-09-07T08:30:29.706Z,4.67
2017-09-07T08:32:58.729Z,4.03
2017-09-07T08:35:26.967Z,4.50
2017-09-07T08:37:55.227Z,4.63
2017-09-07T08:40:23.479Z,5.60
2017-09-07T08:42:51.765Z,4.87
2017-09-07T08:45:20.002Z,4.60
2017-09-07T08:47:49.026Z,5.87
2017-09-07T08:50:17.279Z,5.37
2017-09-07T08:52:45.539Z,5.43
2017-09-07T08:55:13.805Z,5.83
2017-09-07T08:57:42.066Z,4.93
2017-09-07T09:00:10.312Z,5.40
2017-09-07T09:02:39.339Z,4.83
2017-09-07T09:05:07.622Z,4.67
2017-09-07T09:07:35.879Z,4.53
2017-09-07T09:10:04.187Z,4.70
2017-09-07T09:12:32.464Z,5.47
2017-09-07T09:15:00.773Z,6.43
2017-09-07T09:17:29.118Z,4.43
2017-09-07T09:19:57.357Z,5.03
2017-09-07T09:22:26.377Z,4.07
2017-09-07T09:24:55.416Z,4.70
2017-09-07T09:27:23.669Z,4.03
2017-09-07T09:29:51.962Z,4.30
2017-09-07T09:32:20.216Z,3.70
2017-09-07T09:34:48.526Z,4.00
2017-09-07T09:37:17.487Z,4.87
2017-09-07T09:39:46.816Z,3.20
2017-09-07T09:42:15.166Z,4.57
2017-09-07T09:44:44.234Z,4.57
2017-09-07T09:47:12.594Z,5.00
2017-09-07T09:49:40.884Z,3.53
2017-09-07T09:52:09.131Z,4.33
2017-09-07T09:54:37.399Z,5.40
2017-09-07T09:57:05.733Z,4.27
2017-09-07T09:59:33.987Z,4.90
2017-09-07T10:02:02.230Z,4.50
2017-09-07T10:04:31.250Z,4.07
2017-09-07T10:06:59.558Z,4.60
2017-09-07T10:09:27.814Z,4.40
2017-09-07T10:11:56.110Z,3.80
2017-09-07T10:14:24.392Z,4.90
2017-09-07T10:16:52.636Z,4.63
2017-09-07T10:19:21.679Z,4.57
2017-09-07T10:21:49.950Z,4.13
2017-09-07T10:24:18.243Z,4.63
2017-09-07T10:26:46.487Z,4.53
2017-09-07T10:29:15.614Z,4.10
2017-09-07T10:31:43.860Z,3.73
2017-09-07T10:34:13.238Z,3.97
2017-09-07T10:36:41.478Z,4.23
2017-09-07T10:39:09.762Z,3.70
2017-09-07T10:41:38.767Z,4.40
2017-09-07T10:44:07.014Z,4.33
2017-09-07T10:46:36.049Z,3.43
2017-09-07T10:49:04.314Z,3.73
2017-09-07T10:51:32.571Z,4.17
2017-09-07T10:54:01.605Z,3.47
2017-09-07T10:56:29.854Z,3.70
2017-09-07T10:58:58.161Z,3.33
2017-09-07T11:01:26.446Z,3.60
2017-09-07T11:03:54.695Z,4.40
2017-09-07T11:06:23.831Z,4.13
2017-09-07T11:08:52.079Z,4.20
2017-09-07T11:11:21.203Z,3.97
2017-09-07T11:13:49.503Z,4.23
2017-09-07T11:16:17.826Z,4.17
2017-09-07T11:18:46.106Z,3.40
2017-09-07T11:21:14.443Z,4.43
2017-09-07T11:23:42.840Z,4.00
2017-09-07T11:26:11.146Z,4.00
2017-09-07T11:28:39.393Z,4.23
2017-09-07T11:31:07.669Z,4.70
2017-09-07T11:33:35.916Z,4.43
2017-09-07T11:36:04.958Z,4.53
2017-09-07T11:38:33.235Z,4.40
2017-09-07T11:41:01.471Z,3.70
2017-09-07T11:43:30.552Z,3.27
2017-09-07T11:45:58.809Z,6.60
2017-09-07T11:48:27.166Z,3.97
2017-09-07T11:50:55.403Z,3.47
2017-09-07T11:53:24.430Z,6.80
2017-09-07T11:55:52.689Z,4.40
2017-09-07T11:58:21.739Z,3.60
2017-09-07T12:00:50.120Z,4.47
2017-09-07T12:03:18.397Z,4.43
2017-09-07T12:05:46.986Z,4.47
2017-09-07T12:08:15.281Z,4.00
2017-09-07T12:10:43.582Z,3.07
2017-09-07T12:13:11.863Z,3.47
2017-09-07T12:15:40.104Z,3.00
2017-09-07T12:18:09.083Z,3.93
2017-09-07T12:20:38.111Z,3.80
2017-09-07T12:23:06.366Z,4.10
2017-09-07T12:25:34.607Z,4.00
2017-09-07T12:28:02.958Z,4.70
2017-09-07T12:30:31.198Z,3.47
2017-09-07T12:33:00.221Z,4.40
2017-09-07T12:35:28.478Z,3.67
2017-09-07T12:37:57.498Z,5.17
2017-09-07T12:40:29.732Z,3.13
2017-09-07T12:43:00.090Z,3.33
2017-09-07T12:45:29.131Z,4.00
2017-09-07T12:47:57.519Z,3.53
2017-09-07T12:50:25.792Z,4.30
2017-09-07T12:52:54.046Z,5.17
2017-09-07T12:55:23.070Z,4.37
2017-09-07T12:57:51.352Z,5.37
2017-09-07T13:00:19.610Z,5.00
2017-09-07T13:02:47.897Z,4.00
2017-09-07T13:05:16.161Z,3.83
2017-09-07T13:07:45.194Z,4.00
2017-09-07T13:10:13.449Z,4.70
2017-09-07T13:12:41.692Z,4.03
2017-09-07T13:15:09.972Z,3.87
2017-09-07T13:17:38.219Z,4.53
2017-09-07T13:20:06.482Z,3.43
2017-09-07T13:22:34.734Z,4.60
2017-09-07T13:25:03.759Z,3.90
2017-09-07T13:27:32.066Z,4.27
2017-09-07T13:30:00.343Z,4.97
2017-09-07T13:32:28.587Z,5.07
2017-09-07T13:34:57.624Z,3.50
2017-09-07T13:37:25.877Z,4.10
2017-09-07T13:39:54.903Z,4.00
2017-09-07T13:42:23.179Z,4.60
2017-09-07T13:44:51.457Z,4.73
2017-09-07T13:47:19.710Z,4.00
2017-09-07T13:49:48.732Z,4.23
2017-09-07T13:52:17.565Z,4.40
2017-09-07T13:54:45.857Z,3.53
2017-09-07T13:57:14.188Z,7.30
2017-09-07T13:59:42.430Z,4.60
2017-09-07T14:02:10.702Z,5.10
2017-09-07T14:04:38.958Z,4.87
2017-09-07T14:07:07.319Z,5.10
2017-09-07T14:09:35.615Z,4.90
2017-09-07T14:12:03.875Z,5.60
2017-09-07T14:14:32.855Z,4.60
2017-09-07T14:17:01.071Z,5.50
2017-09-07T14:19:29.320Z,5.60
2017-09-07T14:21:57.624Z,5.07
2017-09-07T14:24:25.858Z,4.50
2017-09-07T14:26:54.953Z,4.57
2017-09-07T14:29:23.246Z,4.67
2017-09-07T14:31:51.508Z,6.40
2017-09-07T14:34:19.762Z,4.83
2017-09-07T14:36:48.143Z,5.37
2017-09-07T14:39:16.375Z,4.93
2017-09-07T14:41:44.635Z,5.10
2017-09-07T14:44:13.650Z,4.70
2017-09-07T14:46:42.680Z,5.73
2017-09-07T14:49:10.974Z,4.63
2017-09-07T14:51:39.355Z,4.63
2017-09-07T14:54:07.658Z,5.20
2017-09-07T14:56:36.398Z,7.00
2017-09-07T14:59:05.427Z,7.43
2017-09-07T15:01:33.669Z,5.07
2017-09-07T15:04:02.703Z,5.47
2017-09-07T15:06:31.020Z,5.57
2017-09-07T15:08:59.871Z,4.50
2017-09-07T15:11:28.988Z,5.47
2017-09-07T15:13:57.262Z,5.43
2017-09-07T15:16:25.511Z,5.10
2017-09-07T15:18:53.772Z,5.20
2017-09-07T15:21:22.129Z,5.10
2017-09-07T15:23:50.392Z,4.53
2017-09-07T15:26:18.631Z,4.20
2017-09-07T15:28:47.750Z,4.37
2017-09-07T15:31:16.020Z,4.80
2017-09-07T15:33:44.314Z,3.43
2017-09-07T15:36:12.612Z,4.00
2017-09-07T15:38:40.868Z,3.80
2017-09-07T15:41:09.125Z,4.73
2017-09-07T15:43:38.150Z,4.60
2017-09-07T15:46:06.410Z,5.27
2017-09-07T15:48:35.430Z,4.53
2017-09-07T15:51:03.688Z,5.83
2017-09-07T15:53:31.959Z,4.20
2017-09-07T15:56:01.007Z,5.30
2017-09-07T15:58:29.270Z,5.20
2017-09-07T16:00:57.544Z,4.70
2017-09-07T16:03:25.795Z,4.80
2017-09-07T16:05:54.050Z,4.33
2017-09-07T16:08:22.299Z,3.90
2017-09-07T16:10:51.514Z,3.90
2017-09-07T16:13:19.794Z,3.70
2017-09-07T16:15:48.079Z,3.87
2017-09-07T16:18:16.317Z,4.73
2017-09-07T16:20:44.583Z,4.20
2017-09-07T16:23:13.638Z,4.50
2017-09-07T16:25:41.935Z,4.57
2017-09-07T16:28:10.183Z,5.13
2017-09-07T16:30:38.459Z,7.10
2017-09-07T16:33:06.707Z,4.57
2017-09-07T16:35:34.991Z,4.30
2017-09-07T16:38:03.276Z,4.60
2017-09-07T16:40:31.534Z,4.07
2017-09-07T16:42:59.798Z,4.13
2017-09-07T16:45:28.051Z,3.43
2017-09-07T16:47:56.298Z,3.97
2017-09-07T16:50:24.557Z,4.50
2017-09-07T16:52:52.843Z,5.67
2017-09-07T16:55:21.106Z,4.43
2017-09-07T16:57:49.346Z,3.90
2017-09-07T17:00:17.673Z,4.97
2017-09-07T17:02:45.909Z,4.20
2017-09-07T17:05:14.211Z,5.53
2017-09-07T17:07:42.484Z,4.63
2017-09-07T17:10:10.731Z,4.10
2017-09-07T17:12:39.759Z,4.60
2017-09-07T17:15:08.396Z,3.63
2017-09-07T17:17:37.670Z,4.60
2017-09-07T17:20:05.903Z,4.50
2017-09-07T17:22:34.934Z,6.03
2017-09-07T17:25:03.211Z,4.50
2017-09-07T17:27:31.477Z,5.13
2017-09-07T17:29:59.812Z,4.30
2017-09-07T17:32:28.639Z,4.73
2017-09-07T17:34:57.681Z,5.20
2017-09-07T17:37:25.988Z,4.30
2017-09-07T17:39:54.203Z,4.70
2017-09-07T17:42:22.467Z,3.90
2017-09-07T17:44:51.474Z,5.07
2017-09-07T17:47:19.734Z,5.20
2017-09-07T17:49:48.273Z,4.87
2017-09-07T17:52:16.676Z,4.63
2017-09-07T17:54:45.289Z,5.50
2017-09-07T17:57:14.542Z,5.43
2017-09-07T17:59:42.888Z,4.70
2017-09-07T18:02:11.222Z,5.50
2017-09-07T18:04:39.500Z,4.60
2017-09-07T18:07:07.804Z,5.83
2017-09-07T18:09:36.114Z,5.10
2017-09-07T18:12:04.348Z,4.73
2017-09-07T18:14:32.616Z,8.73
2017-09-07T18:17:00.879Z,5.53
2017-09-07T18:19:29.881Z,5.00
2017-09-07T18:21:58.161Z,4.90
2017-09-07T18:24:26.427Z,6.80
2017-09-07T18:26:55.448Z,7.03
2017-09-07T18:29:23.713Z,5.40
2017-09-07T18:31:52.747Z,4.40
2017-09-07T18:34:21.006Z,4.90
2017-09-07T18:36:49.294Z,4.23
2017-09-07T18:39:17.550Z,5.00
2017-09-07T18:41:46.569Z,5.50
2017-09-07T18:44:14.827Z,4.70
2017-09-07T18:46:43.838Z,5.90
2017-09-07T18:49:12.146Z,5.57
2017-09-07T18:51:40.426Z,5.20
2017-09-07T18:54:08.698Z,5.23
2017-09-07T18:56:36.999Z,4.60
2017-09-07T18:59:05.263Z,5.43
2017-09-07T19:01:33.591Z,4.70
2017-09-07T19:04:01.862Z,5.73
2017-09-07T19:06:30.252Z,4.80
2017-09-07T19:08:58.500Z,5.10
2017-09-07T19:11:26.754Z,7.17
2017-09-07T19:13:55.064Z,5.47
2017-09-07T19:16:23.335Z,6.03
2017-09-07T19:18:51.615Z,6.50
2017-09-07T19:21:19.899Z,6.47
2017-09-07T19:23:48.136Z,5.37
2017-09-07T19:26:17.199Z,5.87
2017-09-07T19:28:45.439Z,7.90
2017-09-07T19:31:13.748Z,5.93
2017-09-07T19:33:41.994Z,6.43
2017-09-07T19:36:11.066Z,6.13
2017-09-07T19:38:40.147Z,6.47
2017-09-07T19:41:08.445Z,7.53
2017-09-07T19:43:36.671Z,5.70
2017-09-07T19:46:04.971Z,7.40
2017-09-07T19:48:33.223Z,6.60
2017-09-07T19:51:02.270Z,5.73
2017-09-07T19:53:30.509Z,5.60
2017-09-07T19:55:58.810Z,7.27
2017-09-07T19:58:27.092Z,6.37
2017-09-07T20:00:55.350Z,11.60
2017-09-07T20:03:23.602Z,7.00
2017-09-07T20:05:52.636Z,7.70
2017-09-07T20:08:21.643Z,8.77
2017-09-07T20:10:49.931Z,7.23
2017-09-07T20:13:18.182Z,7.20
2017-09-07T20:15:46.491Z,7.07
2017-09-07T20:18:14.750Z,6.17
2017-09-07T20:20:43.016Z,5.60
2017-09-07T20:23:12.054Z,5.60
2017-09-07T20:25:40.297Z,6.30
2017-09-07T20:28:09.468Z,5.33
2017-09-07T20:30:37.690Z,5.13
2017-09-07T20:33:05.952Z,6.10
2017-09-07T20:35:34.212Z,5.83
2017-09-07T20:38:02.567Z,5.77
2017-09-07T20:40:30.813Z,5.60
2017-09-07T20:42:59.122Z,5.73
2017-09-07T20:45:27.400Z,5.80
2017-09-07T20:47:55.659Z,6.77
2017-09-07T20:50:23.923Z,6.50
2017-09-07T20:52:52.964Z,6.10
2017-09-07T20:55:21.211Z,9.93
2017-09-07T20:57:50.242Z,7.60
2017-09-07T21:00:18.499Z,9.63
2017-09-07T21:02:47.546Z,7.73
2017-09-07T21:05:15.849Z,7.97
2017-09-07T21:07:44.209Z,7.23
2017-09-07T21:10:12.472Z,6.67
2017-09-07T21:12:40.755Z,7.80
2017-09-07T21:15:09.004Z,7.43
2017-09-07T21:17:38.068Z,6.13
2017-09-07T21:20:06.316Z,6.20
2017-09-07T21:22:34.560Z,7.07
2017-09-07T21:25:03.601Z,9.90
2017-09-07T21:27:31.846Z,6.70
2017-09-07T21:30:00.884Z,7.07
2017-09-07T21:32:29.120Z,6.77
2017-09-07T21:34:58.153Z,4.73
2017-09-07T21:37:26.395Z,6.00
2017-09-07T21:39:55.475Z,5.17
2017-09-07T21:42:23.731Z,5.20
2017-09-07T21:44:51.998Z,10.17
2017-09-07T21:47:20.247Z,9.20
2017-09-07T21:49:49.271Z,9.57
2017-09-07T21:52:17.571Z,7.70
2017-09-07T21:54:45.831Z,7.97
2017-09-07T21:57:14.088Z,9.17
2017-09-07T21:59:43.124Z,6.87
2017-09-07T22:02:11.370Z,7.40
2017-09-07T22:04:39.646Z,8.57
2017-09-07T22:07:08.646Z,8.10
2017-09-07T22:09:36.905Z,5.93
2017-09-07T22:12:05.932Z,10.03
2017-09-07T22:14:35.084Z,8.23
2017-09-07T22:17:03.333Z,7.87
2017-09-07T22:19:31.636Z,7.50
2017-09-07T22:21:59.931Z,6.67
2017-09-07T22:24:28.202Z,5.67
2017-09-07T22:26:56.458Z,5.97
2017-09-07T22:29:24.758Z,6.50
2017-09-07T22:31:52.999Z,6.47
2017-09-07T22:34:22.033Z,5.47
2017-09-07T22:36:50.341Z,6.37
2017-09-07T22:39:18.580Z,5.77
2017-09-07T22:41:46.897Z,6.67
2017-09-07T22:44:15.160Z,6.60
2017-09-07T22:46:43.447Z,7.00
2017-09-07T22:49:11.694Z,5.87
2017-09-07T22:51:40.726Z,6.70
2017-09-07T22:54:08.987Z,6.20
2017-09-07T22:56:37.277Z,5.80
2017-09-07T22:59:05.606Z,5.60
2017-09-07T23:01:33.888Z,6.23
2017-09-07T23:04:02.152Z,5.20
2017-09-07T23:06:30.431Z,5.20
2017-09-07T23:08:58.665Z,6.93
2017-09-07T23:11:27.708Z,6.00
2017-09-07T23:13:55.958Z,6.60
2017-09-07T23:16:24.301Z,6.67
2017-09-07T23:18:52.521Z,5.40
2017-09-07T23:21:20.788Z,6.37
2017-09-07T23:23:49.828Z,4.93
2017-09-07T23:26:18.140Z,5.00
2017-09-07T23:28:46.373Z,6.50
2017-09-07T23:31:14.666Z,7.20
2017-09-07T23:33:42.936Z,5.20
2017-09-07T23:36:11.231Z,5.53
2017-09-07T23:38:39.521Z,5.63
2017-09-07T23:41:07.768Z,5.27
2017-09-07T23:43:36.074Z,5.50
2017-09-07T23:46:04.352Z,6.37
2017-09-07T23:48:32.605Z,6.10
2017-09-07T23:51:00.855Z,5.43
2017-09-07T23:53:29.195Z,5.83
2017-09-07T23:55:57.478Z,5.93
2017-09-07T23:58:25.755Z,5.90
